Terminal Aerodrome Forecast
Issued by NWS Northern Indiana

Home | Current Version | Previous Version | Graphics & Text | Print | Product List | Glossary On
Versions: 1 2 3 4 5 6 7 8 9 10 11 12
000
FTUS43 KIWX 032332
TAFFWA
TAF
KFWA 032332Z 0400/0424 05006KT P6SM SCT130 BKN250
     FM040300 VRB03KT P6SM SCT250
      TEMPO 0408/0412 4SM BR
     FM041300 31005KT P6SM SKC=

USA.gov is the U.S. government's official web portal to all federal, state and local government web resources and services.